Date,TemperatureHighF,TemperatureAvgF,TemperatureLowF,DewpointHighF,DewpointAvgF,DewpointLowF,HumidityHigh,HumidityAvg,HumidityLow,PressureMaxIn,PressureMinIn,WindSpeedMaxMPH,WindSpeedAvgMPH,GustSpeedMaxMPH,PrecipitationSumIn
2013-1-1,36.6,29.7,17.0,27.2,15.4,1.6,81,55,40,29.89,29.65,28,3,28,0.00
2013-1-2,28.1,16.7,6.1,17.1,7.2,-2.6,78,66,53,30.12,29.86,16,1,16,0.00
2013-1-3,21.8,10.1,-1.6,9.1,-1.2,-8.7,76,60,34,30.13,29.93,6,0,7,0.00
2013-1-4,39.3,27.6,14.0,22.4,16.9,7.7,84,65,44,29.93,29.74,19,2,19,0.08
2013-1-5,41.1,33.9,22.7,24.5,19.8,12.7,77,57,34,30.19,29.80,24,2,24,0.14
2013-1-6,39.2,30.3,23.5,28.5,24.0,17.2,88,78,62,30.14,29.86,7,0,7,0.08
2013-1-7,37.2,30.8,18.9,28.5,20.6,-99.9,87,68,42,30.32,29.90,17,1,17,0.03
2013-1-8,42.3,26.6,12.9,27.6,18.8,7.6,84,73,54,30.31,30.20,17,1,17,0.00
2013-1-9,45.5,29.3,19.4,28.1,22.3,14.6,88,76,43,30.33,29.95,26,1,26,0.00
2013-1-10,45.2,29.1,28.1,29.7,-10.4,-99.9,77,39,40,30.48,29.99,37,-217,37,0.01
2013-1-11,34.3,14.8,23.3,30.5,-36.4,-99.9,90,44,66,30.49,30.12,3,-430,3,0.06
2013-1-12,40.6,25.1,34.0,38.2,-9.4,-99.9,95,62,90,30.14,30.06,3,-307,3,0.00
2013-1-13,41.9,38.5,35.5,40.6,37.1,33.8,96,95,92,30.08,29.92,10,0,10,0.01
2013-1-14,52.2,41.3,36.8,45.3,33.3,23.2,96,75,41,30.22,29.83,21,1,21,0.01
2013-1-15,41.8,35.1,28.5,26.9,23.8,21.2,84,64,45,30.29,30.17,12,1,12,0.00
2013-1-16,33.7,31.9,30.1,31.1,28.7,24.4,93,88,74,30.18,29.77,4,0,4,0.04
2013-1-17,40.1,32.0,25.6,31.6,22.1,5.1,93,69,40,30.06,29.77,21,2,21,0.28
2013-1-18,26.3,21.4,15.2,8.4,-1.4,-9.8,48,36,27,30.34,29.99,24,3,24,0.00
2013-1-19,45.4,31.0,17.3,28.6,10.8,-99.9,82,56,36,30.29,29.77,20,-31,20,0.03
2013-1-20,47.1,33.0,25.0,31.3,11.4,-99.9,75,53,33,29.92,29.49,26,-79,26,0.01
2013-1-21,26.6,15.8,18.4,16.1,-32.7,-99.9,72,33,42,30.01,29.73,13,-248,13,0.00
2013-1-22,22.9,8.9,15.4,14.5,-55.4,-99.9,78,24,29,30.04,29.70,27,-502,27,0.00
2013-1-23,13.5,4.5,6.3,-7.5,-64.2,-99.9,46,14,28,30.11,30.02,20,-583,20,0.00
2013-1-24,17.8,8.2,1.7,-6.3,-47.0,-99.9,68,20,27,30.22,30.06,21,-302,21,0.00
2013-1-25,20.2,9.2,5.6,11.9,-34.4,-99.9,80,34,34,30.29,30.01,13,-234,13,0.00
2013-1-26,25.0,15.8,6.1,10.6,1.2,-6.9,81,55,27,30.22,29.98,19,2,19,0.00
2013-1-27,30.0,16.5,2.2,5.8,0.2,-99.9,78,52,26,30.42,30.21,14,1,14,0.00
2013-1-28,24.7,18.8,11.9,22.5,12.1,2.6,91,75,54,30.41,29.96,6,0,6,0.00
2013-1-29,33.7,29.2,24.1,31.0,24.4,-99.9,93,85,76,30.12,29.96,6,-10,6,0.23
2013-1-30,51.9,37.8,32.8,50.6,32.3,-99.9,96,91,93,30.06,29.31,14,-34,14,0.22
2013-1-31,58.9,38.8,29.7,57.0,11.9,-99.9,96,59,35,29.54,28.85,22,-127,22,0.86